createdAt,value
2023-06-10T00:01:41.630Z,10.90
2023-06-10T00:04:08.221Z,11.43
2023-06-10T00:06:37.526Z,12.32
2023-06-10T00:09:05.927Z,13.65
2023-06-10T00:11:33.612Z,11.55
2023-06-10T00:14:00.912Z,12.20
2023-06-10T00:16:27.735Z,12.35
2023-06-10T00:18:56.685Z,12.68
2023-06-10T00:21:23.289Z,13.07
2023-06-10T00:23:50.690Z,12.98
2023-06-10T00:26:17.376Z,13.10
2023-06-10T00:28:45.875Z,13.60
2023-06-10T00:31:12.497Z,13.07
2023-06-10T00:33:38.979Z,13.05
2023-06-10T00:36:05.594Z,12.93
2023-06-10T00:38:32.891Z,12.68
2023-06-10T00:40:59.322Z,12.85
2023-06-10T00:43:25.870Z,12.88
2023-06-10T00:45:52.997Z,12.00
2023-06-10T00:48:19.756Z,12.77
2023-06-10T00:50:47.721Z,14.45
2023-06-10T00:53:14.335Z,13.38
2023-06-10T00:55:42.065Z,12.73
2023-06-10T00:58:08.994Z,12.45
2023-06-10T01:00:35.612Z,13.30
2023-06-10T01:03:02.168Z,12.98
2023-06-10T01:05:28.696Z,13.57
2023-06-10T01:08:08.242Z,14.75
2023-06-10T01:10:40.690Z,13.38
2023-06-10T01:13:09.364Z,15.00
2023-06-10T01:15:36.468Z,14.60
2023-06-10T01:18:09.820Z,15.15
2023-06-10T01:20:40.883Z,14.85
2023-06-10T01:23:08.034Z,17.25
2023-06-10T01:25:45.225Z,15.43
2023-06-10T01:28:32.368Z,16.02
2023-06-10T01:31:43.088Z,16.20
2023-06-10T01:34:15.382Z,15.63
2023-06-10T01:36:42.461Z,15.65
2023-06-10T01:39:10.016Z,15.18
2023-06-10T01:41:36.700Z,17.48
2023-06-10T01:44:03.723Z,16.42
2023-06-10T01:46:30.302Z,16.05
2023-06-10T01:48:57.039Z,16.00
2023-06-10T01:51:23.493Z,17.15
2023-06-10T01:53:50.070Z,17.23
2023-06-10T01:56:19.026Z,16.65
2023-06-10T01:58:45.711Z,17.60
2023-06-10T02:01:12.502Z,16.02
2023-06-10T02:03:39.132Z,19.98
2023-06-10T02:06:05.783Z,17.15
2023-06-10T02:08:32.232Z,18.40
2023-06-10T02:10:58.676Z,17.13
2023-06-10T02:13:25.120Z,24.10
2023-06-10T02:15:51.560Z,17.55
2023-06-10T02:18:21.597Z,18.17
2023-06-10T02:20:48.114Z,18.33
2023-06-10T02:23:14.806Z,20.13
2023-06-10T02:25:41.355Z,18.80
2023-06-10T02:28:08.086Z,19.40
2023-06-10T02:30:34.575Z,18.15
2023-06-10T02:33:02.259Z,18.60
2023-06-10T02:35:28.797Z,18.23
2023-06-10T02:37:55.335Z,17.63
2023-06-10T02:40:21.884Z,18.90
2023-06-10T02:42:48.321Z,18.95
2023-06-10T02:45:15.228Z,20.20
2023-06-10T02:47:42.674Z,18.63
2023-06-10T02:50:09.659Z,18.55
2023-06-10T02:52:36.167Z,19.05
2023-06-10T02:55:02.626Z,19.13
2023-06-10T02:57:29.060Z,18.42
2023-06-10T02:59:55.672Z,17.25
2023-06-10T03:02:22.666Z,18.17
2023-06-10T03:04:51.728Z,19.15
2023-06-10T03:07:19.757Z,18.50
2023-06-10T03:09:46.242Z,20.73
2023-06-10T03:12:12.831Z,19.52
2023-06-10T03:14:39.813Z,17.38
2023-06-10T03:17:07.145Z,19.58
2023-06-10T03:19:34.591Z,19.75
2023-06-10T03:22:11.148Z,20.35
2023-06-10T03:24:40.932Z,18.48
2023-06-10T03:27:08.706Z,17.75
2023-06-10T03:29:35.221Z,17.95
2023-06-10T03:32:02.155Z,18.33
2023-06-10T03:34:28.698Z,16.70
2023-06-10T03:36:55.146Z,18.98
2023-06-10T03:39:21.626Z,20.08
2023-06-10T03:41:48.099Z,17.27
2023-06-10T03:44:14.930Z,17.88
2023-06-10T03:46:41.444Z,19.45
2023-06-10T03:49:08.225Z,20.00
2023-06-10T03:51:36.787Z,17.50
2023-06-10T03:54:03.411Z,15.70
2023-06-10T03:56:30.035Z,15.30
2023-06-10T03:58:56.850Z,16.98
2023-06-10T04:01:24.444Z,18.70
2023-06-10T04:03:52.425Z,16.35
2023-06-10T04:06:18.950Z,16.00
2023-06-10T04:08:45.893Z,15.05
2023-06-10T04:11:12.355Z,15.05
2023-06-10T04:13:38.891Z,16.45
2023-06-10T04:16:05.789Z,16.25
2023-06-10T04:18:32.245Z,13.73
2023-06-10T04:20:58.691Z,16.45
2023-06-10T04:23:25.658Z,14.10
2023-06-10T04:25:52.129Z,14.45
2023-06-10T04:28:18.598Z,14.65
2023-06-10T04:30:46.003Z,16.15
2023-06-10T04:33:12.469Z,14.60
2023-06-10T04:35:38.925Z,17.05
2023-06-10T04:38:05.432Z,19.30
2023-06-10T04:40:31.935Z,14.50
2023-06-10T04:42:58.372Z,18.00
2023-06-10T04:45:24.872Z,14.40
2023-06-10T04:47:51.436Z,14.27
2023-06-10T04:50:17.980Z,16.15
2023-06-10T04:52:45.549Z,13.98
2023-06-10T04:55:12.499Z,14.23
2023-06-10T04:57:39.012Z,13.60
2023-06-10T05:00:07.228Z,14.05
2023-06-10T05:02:33.957Z,14.57
2023-06-10T05:05:00.603Z,14.60
2023-06-10T05:07:27.119Z,13.45
2023-06-10T05:09:53.588Z,13.90
2023-06-10T05:12:20.037Z,13.23
2023-06-10T05:14:47.162Z,12.40
2023-06-10T05:17:14.059Z,15.27
2023-06-10T05:19:40.823Z,15.60
2023-06-10T05:22:07.573Z,11.07
2023-06-10T05:24:34.100Z,10.27
2023-06-10T05:27:00.560Z,10.60
2023-06-10T05:29:27.200Z,10.93
2023-06-10T05:31:53.788Z,11.40
2023-06-10T05:34:20.518Z,10.07
2023-06-10T05:36:47.304Z,10.18
2023-06-10T05:39:13.752Z,8.48
2023-06-10T05:41:40.298Z,10.88
2023-06-10T05:44:06.754Z,16.20
2023-06-10T05:46:33.467Z,10.70
2023-06-10T05:48:59.980Z,10.77
2023-06-10T05:51:26.808Z,11.98
2023-06-10T05:53:53.356Z,11.00
2023-06-10T05:56:19.824Z,10.07
2023-06-10T05:58:46.389Z,7.88
2023-06-10T06:01:12.926Z,9.48
2023-06-10T06:03:39.590Z,6.57
2023-06-10T06:06:06.398Z,12.65
2023-06-10T06:08:33.010Z,9.43
2023-06-10T06:10:59.661Z,7.93
2023-06-10T06:13:26.165Z,8.18
2023-06-10T06:15:52.835Z,12.48
2023-06-10T06:18:19.826Z,7.70
2023-06-10T06:20:46.401Z,8.05
2023-06-10T06:23:12.863Z,10.35
2023-06-10T06:25:40.103Z,8.15
2023-06-10T06:28:10.900Z,7.28
2023-06-10T06:30:37.491Z,6.28
2023-06-10T06:33:04.520Z,6.90
2023-06-10T06:35:33.076Z,7.80
2023-06-10T06:37:59.948Z,6.70
2023-06-10T06:40:26.567Z,6.38
2023-06-10T06:42:53.031Z,9.50
2023-06-10T06:45:19.525Z,8.50
2023-06-10T06:47:46.033Z,6.50
2023-06-10T06:50:12.651Z,9.15
2023-06-10T06:52:39.213Z,8.82
2023-06-10T06:55:06.294Z,7.22
2023-06-10T06:57:33.102Z,7.50
2023-06-10T06:59:59.606Z,6.15
2023-06-10T07:02:26.066Z,6.57
2023-06-10T07:04:52.659Z,7.30
2023-06-10T07:07:19.300Z,8.40
2023-06-10T07:09:45.728Z,7.32
2023-06-10T07:12:12.187Z,5.85
2023-06-10T07:14:38.658Z,7.18
2023-06-10T07:17:05.320Z,10.27
2023-06-10T07:19:31.867Z,5.38
2023-06-10T07:21:58.338Z,5.60
2023-06-10T07:24:24.782Z,7.45
2023-06-10T07:26:51.732Z,7.75
2023-06-10T07:29:18.213Z,9.30
2023-06-10T07:31:44.666Z,6.63
2023-06-10T07:34:11.204Z,5.07
2023-06-10T07:36:37.667Z,11.30
2023-06-10T07:39:04.142Z,7.13
2023-06-10T07:41:30.616Z,7.72
2023-06-10T07:43:57.190Z,7.78
2023-06-10T07:46:24.664Z,11.48
2023-06-10T07:48:51.222Z,8.10
2023-06-10T07:51:17.970Z,10.25
2023-06-10T07:53:44.473Z,7.70
2023-06-10T07:56:11.091Z,7.72
2023-06-10T07:58:37.559Z,6.63
2023-06-10T08:01:04.038Z,5.35
2023-06-10T08:03:30.550Z,9.70
2023-06-10T08:05:57.122Z,5.95
2023-06-10T08:08:23.558Z,10.40
2023-06-10T08:10:50.848Z,7.07
2023-06-10T08:13:17.409Z,6.13
2023-06-10T08:15:43.834Z,7.10
2023-06-10T08:18:10.432Z,5.90
2023-06-10T08:20:36.955Z,5.50
2023-06-10T08:23:03.448Z,6.57
2023-06-10T08:25:30.377Z,9.85
2023-06-10T08:27:58.563Z,6.97
2023-06-10T08:30:25.007Z,6.47
2023-06-10T08:32:52.895Z,6.40
2023-06-10T08:35:19.386Z,7.45
2023-06-10T08:37:45.852Z,7.93
2023-06-10T08:40:12.876Z,8.35
2023-06-10T08:42:52.803Z,5.72
2023-06-10T08:45:19.906Z,7.68
2023-06-10T08:47:49.755Z,7.07
2023-06-10T08:50:17.652Z,5.85
2023-06-10T08:52:45.658Z,5.07
2023-06-10T08:55:16.199Z,6.32
2023-06-10T08:57:43.723Z,5.20
2023-06-10T09:00:11.400Z,5.60
2023-06-10T09:02:39.185Z,8.20
2023-06-10T09:05:06.768Z,6.65
2023-06-10T09:07:35.434Z,5.82
2023-06-10T09:10:04.008Z,4.72
2023-06-10T09:12:30.910Z,6.13
2023-06-10T09:14:57.379Z,6.75
2023-06-10T09:17:23.855Z,5.65
2023-06-10T09:19:51.443Z,11.65
2023-06-10T09:22:17.892Z,6.47
2023-06-10T09:24:44.332Z,5.97
2023-06-10T09:27:10.820Z,6.07
2023-06-10T09:29:54.502Z,6.65
2023-06-10T09:32:21.608Z,7.70
2023-06-10T09:34:48.722Z,6.47
2023-06-10T09:37:21.837Z,6.00
2023-06-10T09:40:10.261Z,7.28
2023-06-10T09:42:39.193Z,9.77
2023-06-10T09:45:07.170Z,5.28
2023-06-10T09:47:33.792Z,7.85
2023-06-10T09:50:00.974Z,6.85
2023-06-10T09:52:30.286Z,12.50
2023-06-10T09:55:02.149Z,8.10
2023-06-10T09:57:36.764Z,6.20
2023-06-10T10:00:09.254Z,5.63
2023-06-10T10:02:50.490Z,7.43
2023-06-10T10:05:18.701Z,9.75
2023-06-10T10:07:46.066Z,7.40
2023-06-10T10:10:14.427Z,9.48
2023-06-10T10:12:41.615Z,7.32
2023-06-10T10:15:09.709Z,6.30
2023-06-10T10:18:07.736Z,6.75
2023-06-10T10:20:35.555Z,5.95
2023-06-10T10:23:04.419Z,7.10
2023-06-10T10:25:35.656Z,5.70
2023-06-10T10:28:05.290Z,7.35
2023-06-10T10:30:35.519Z,6.28
2023-06-10T10:33:09.408Z,8.00
2023-06-10T10:35:37.382Z,6.68
2023-06-10T10:38:04.609Z,8.25
2023-06-10T10:40:31.393Z,6.57
2023-06-10T10:42:59.424Z,5.63
2023-06-10T10:45:28.849Z,7.18
2023-06-10T10:47:58.859Z,6.72
2023-06-10T10:50:25.515Z,8.65
2023-06-10T10:52:57.463Z,7.30
2023-06-10T10:55:24.958Z,9.52
2023-06-10T10:57:57.803Z,7.60
2023-06-10T11:00:45.437Z,6.32
2023-06-10T11:03:20.147Z,6.43
2023-06-10T11:05:49.156Z,7.13
2023-06-10T11:08:16.922Z,6.65
2023-06-10T11:10:53.905Z,8.15
2023-06-10T11:13:21.725Z,7.72
2023-06-10T11:15:51.983Z,6.95
2023-06-10T11:18:27.771Z,6.05
2023-06-10T11:20:56.726Z,10.00
2023-06-10T11:23:29.317Z,5.78
2023-06-10T11:26:22.307Z,6.80
2023-06-10T11:28:48.728Z,6.22
2023-06-10T11:31:20.911Z,6.20
2023-06-10T11:33:49.248Z,9.10
2023-06-10T11:36:15.921Z,6.45
2023-06-10T11:38:42.402Z,6.78
2023-06-10T11:41:08.874Z,8.30
2023-06-10T11:43:35.387Z,6.20
2023-06-10T11:46:03.091Z,9.55
2023-06-10T11:48:31.447Z,8.00
2023-06-10T11:50:58.002Z,9.57
2023-06-10T11:53:24.467Z,10.43
2023-06-10T11:55:52.007Z,6.10
2023-06-10T11:58:23.027Z,6.32
2023-06-10T12:00:51.512Z,7.38
2023-06-10T12:03:18.864Z,6.10
2023-06-10T12:05:59.402Z,8.75
2023-06-10T12:08:26.583Z,8.63
2023-06-10T12:10:53.129Z,9.20
2023-06-10T12:13:19.578Z,12.20
2023-06-10T12:15:46.554Z,6.05
2023-06-10T12:18:20.592Z,7.88
2023-06-10T12:20:47.327Z,5.88
2023-06-10T12:23:14.379Z,7.63
2023-06-10T12:25:41.007Z,6.50
2023-06-10T12:28:11.362Z,7.55
2023-06-10T12:30:37.880Z,6.05
2023-06-10T12:33:04.387Z,6.20
2023-06-10T12:35:30.950Z,6.28
2023-06-10T12:38:02.182Z,7.70
2023-06-10T12:42:57.268Z,7.40
2023-06-10T12:45:30.740Z,6.60
2023-06-10T12:48:10.132Z,5.78
2023-06-10T12:50:40.644Z,5.80
2023-06-10T12:53:07.591Z,8.43
2023-06-10T12:55:34.518Z,5.68
2023-06-10T12:58:02.746Z,5.25
2023-06-10T13:00:32.128Z,5.40
2023-06-10T13:03:02.041Z,7.78
2023-06-10T13:05:29.120Z,8.40
2023-06-10T13:07:55.889Z,6.88
2023-06-10T13:10:25.377Z,6.53
2023-06-10T13:12:53.307Z,5.55
2023-06-10T13:15:19.769Z,5.32
2023-06-10T13:17:52.375Z,6.85
2023-06-10T13:20:19.792Z,7.38
2023-06-10T13:22:46.360Z,5.93
2023-06-10T13:25:13.369Z,6.07
2023-06-10T13:27:40.349Z,5.93
2023-06-10T13:30:09.292Z,5.60
2023-06-10T13:32:36.637Z,5.57
2023-06-10T13:35:05.257Z,5.75
2023-06-10T13:37:32.008Z,6.70
2023-06-10T13:39:58.462Z,6.97
2023-06-10T13:42:27.345Z,7.68
2023-06-10T13:44:53.888Z,6.95
2023-06-10T13:47:20.751Z,6.47
2023-06-10T13:49:47.377Z,6.72
2023-06-10T13:52:13.911Z,6.32
2023-06-10T13:54:40.669Z,7.30
2023-06-10T13:57:07.626Z,7.25
2023-06-10T13:59:34.060Z,7.95
2023-06-10T14:02:01.483Z,5.55
2023-06-10T14:04:28.006Z,6.72
2023-06-10T14:06:54.513Z,8.55
2023-06-10T14:09:21.034Z,6.43
2023-06-10T14:11:48.585Z,12.75
2023-06-10T14:14:15.985Z,6.25
2023-06-10T14:16:43.687Z,6.05
2023-06-10T14:19:10.371Z,6.03
2023-06-10T14:21:36.817Z,7.15
2023-06-10T14:24:03.431Z,5.97
2023-06-10T14:26:30.093Z,9.15
2023-06-10T14:28:56.561Z,6.90
2023-06-10T14:31:23.029Z,6.65
2023-06-10T14:33:50.626Z,6.20
2023-06-10T14:36:17.236Z,6.10
2023-06-10T14:38:43.727Z,7.68
2023-06-10T14:41:10.240Z,8.30
2023-06-10T14:43:36.720Z,6.63
2023-06-10T14:46:03.283Z,7.45
2023-06-10T14:48:29.739Z,6.63
2023-06-10T14:50:56.332Z,6.68
2023-06-10T14:53:22.919Z,9.40
2023-06-10T14:55:49.480Z,9.68
2023-06-10T14:58:15.933Z,7.82
2023-06-10T15:00:42.359Z,6.68
2023-06-10T15:03:08.876Z,8.57
2023-06-10T15:05:35.770Z,6.70
2023-06-10T15:08:02.276Z,6.20
2023-06-10T15:10:28.837Z,7.18
2023-06-10T15:12:57.197Z,8.32
2023-06-10T15:15:24.561Z,16.98
2023-06-10T15:17:51.156Z,5.63
2023-06-10T15:20:17.832Z,6.07
2023-06-10T15:22:44.280Z,5.40
2023-06-10T15:25:21.492Z,9.45
2023-06-10T15:27:56.893Z,7.70
2023-06-10T15:30:23.456Z,6.70
2023-06-10T15:32:49.934Z,5.57
2023-06-10T15:35:16.609Z,6.30
2023-06-10T15:37:43.103Z,6.70
2023-06-10T15:40:09.757Z,7.70
2023-06-10T15:42:36.348Z,5.55
2023-06-10T15:45:02.824Z,6.35
2023-06-10T15:47:29.309Z,5.88
2023-06-10T15:49:55.810Z,7.63
2023-06-10T15:52:22.235Z,8.75
2023-06-10T15:54:48.664Z,8.25
2023-06-10T15:57:15.157Z,7.13
2023-06-10T15:59:41.615Z,8.20
2023-06-10T16:02:08.088Z,8.32
2023-06-10T16:04:34.792Z,5.90
2023-06-10T16:07:01.272Z,11.75
2023-06-10T16:09:27.763Z,5.60
2023-06-10T16:11:54.236Z,8.30
2023-06-10T16:14:20.861Z,6.10
2023-06-10T16:16:47.343Z,6.22
2023-06-10T16:19:13.940Z,6.18
2023-06-10T16:21:41.256Z,6.28
2023-06-10T16:24:11.891Z,5.15
2023-06-10T16:26:38.444Z,6.07
2023-06-10T16:29:04.897Z,6.45
2023-06-10T16:31:31.416Z,6.63
2023-06-10T16:33:57.947Z,6.38
2023-06-10T16:36:24.434Z,5.88
2023-06-10T16:38:51.611Z,7.03
2023-06-10T16:41:18.273Z,5.50
2023-06-10T16:43:44.755Z,7.15
2023-06-10T16:46:11.220Z,5.97
2023-06-10T16:48:37.700Z,6.32
2023-06-10T16:51:04.531Z,6.43
2023-06-10T16:53:30.988Z,7.05
2023-06-10T16:55:57.882Z,6.20
2023-06-10T16:58:25.509Z,7.38
2023-06-10T17:00:52.349Z,8.50
2023-06-10T17:03:18.867Z,6.38
2023-06-10T17:05:45.470Z,6.38
2023-06-10T17:08:11.973Z,6.50
2023-06-10T17:10:38.520Z,6.30
2023-06-10T17:13:04.965Z,6.13
2023-06-10T17:15:31.418Z,7.80
2023-06-10T17:17:57.980Z,6.53
2023-06-10T17:20:24.466Z,6.30
2023-06-10T17:22:51.118Z,9.98
2023-06-10T17:25:17.576Z,7.40
2023-06-10T17:27:44.078Z,7.18
2023-06-10T17:30:10.707Z,6.85
2023-06-10T17:32:38.198Z,6.97
2023-06-10T17:35:05.413Z,6.55
2023-06-10T17:37:31.967Z,7.63
2023-06-10T17:39:58.412Z,6.75
2023-06-10T17:42:24.906Z,9.68
2023-06-10T17:44:51.346Z,7.90
2023-06-10T17:47:17.843Z,8.02
2023-06-10T17:49:44.276Z,8.13
2023-06-10T17:52:10.990Z,8.45
2023-06-10T17:54:37.454Z,14.15
2023-06-10T17:57:04.131Z,7.68
2023-06-10T17:59:30.543Z,7.43
2023-06-10T18:01:57.876Z,8.15
2023-06-10T18:04:24.377Z,8.27
2023-06-10T18:06:50.865Z,7.95
2023-06-10T18:09:17.291Z,7.65
2023-06-10T18:11:43.730Z,9.85
2023-06-10T18:14:10.698Z,10.90
2023-06-10T18:16:37.236Z,15.05
2023-06-10T18:19:03.705Z,9.00
2023-06-10T18:21:30.394Z,8.32
2023-06-10T18:23:58.868Z,7.95
2023-06-10T18:26:25.881Z,8.18
2023-06-10T18:28:52.371Z,11.27
2023-06-10T18:31:18.884Z,7.70
2023-06-10T18:33:45.373Z,7.22
2023-06-10T18:36:11.860Z,8.25
2023-06-10T18:38:38.306Z,8.10
2023-06-10T18:41:04.753Z,13.45
2023-06-10T18:43:31.241Z,10.45
2023-06-10T18:45:58.952Z,7.93
2023-06-10T18:48:25.506Z,6.75
2023-06-10T18:50:52.000Z,10.93
2023-06-10T18:53:18.448Z,8.48
2023-06-10T18:55:44.945Z,9.23
2023-06-10T18:58:11.443Z,8.45
2023-06-10T19:00:37.870Z,7.90
2023-06-10T19:03:04.387Z,8.07
2023-06-10T19:05:31.073Z,10.57
2023-06-10T19:07:57.550Z,7.22
2023-06-10T19:10:24.033Z,6.93
2023-06-10T19:12:50.507Z,9.38
2023-06-10T19:15:16.968Z,11.57
2023-06-10T19:17:43.458Z,7.65
2023-06-10T19:20:11.108Z,7.88
2023-06-10T19:22:37.623Z,6.95
2023-06-10T19:25:06.349Z,7.03
2023-06-10T19:27:33.523Z,6.88
2023-06-10T19:30:01.696Z,7.10
2023-06-10T19:32:28.372Z,7.60
2023-06-10T19:34:54.829Z,6.93
2023-06-10T19:37:21.350Z,7.03
2023-06-10T19:39:47.840Z,7.25
2023-06-10T19:42:15.624Z,7.95
2023-06-10T19:44:42.395Z,7.32
2023-06-10T19:47:09.036Z,7.38
2023-06-10T19:49:35.678Z,6.88
2023-06-10T19:52:07.157Z,8.15
2023-06-10T19:54:34.996Z,7.78
2023-06-10T19:57:04.815Z,8.77
2023-06-10T19:59:31.293Z,8.73
2023-06-10T20:01:57.934Z,7.85
2023-06-10T20:04:24.552Z,8.48
2023-06-10T20:06:51.460Z,7.50
2023-06-10T20:09:17.914Z,8.15
2023-06-10T20:11:44.575Z,7.55
2023-06-10T20:14:11.102Z,7.68
2023-06-10T20:16:37.640Z,7.50
2023-06-10T20:19:04.177Z,9.05
2023-06-10T20:21:30.720Z,8.68
2023-06-10T20:23:57.332Z,10.73
2023-06-10T20:26:24.333Z,11.70
2023-06-10T20:28:51.019Z,8.45
2023-06-10T20:31:17.491Z,8.38
2023-06-10T20:33:43.968Z,7.78
2023-06-10T20:36:10.717Z,7.78
2023-06-10T20:38:37.196Z,8.43
2023-06-10T20:41:03.654Z,10.00
2023-06-10T20:43:30.187Z,10.93
2023-06-10T20:45:57.354Z,9.45
2023-06-10T20:48:23.966Z,11.23
2023-06-10T20:50:50.473Z,14.60
2023-06-10T20:53:17.056Z,10.52
2023-06-10T20:55:43.551Z,8.65
2023-06-10T20:58:10.637Z,8.77
2023-06-10T21:00:37.155Z,9.57
2023-06-10T21:03:03.731Z,9.38
2023-06-10T21:05:30.440Z,8.20
2023-06-10T21:07:56.918Z,8.38
2023-06-10T21:10:23.491Z,9.38
2023-06-10T21:12:50.046Z,8.50
2023-06-10T21:15:17.618Z,8.63
2023-06-10T21:17:44.347Z,12.25
2023-06-10T21:20:11.881Z,9.30
2023-06-10T21:22:38.431Z,9.45
2023-06-10T21:25:05.412Z,10.05
2023-06-10T21:27:31.903Z,11.93
2023-06-10T21:29:58.358Z,10.48
2023-06-10T21:32:25.259Z,9.45
2023-06-10T21:34:51.779Z,9.18
2023-06-10T21:37:18.267Z,9.88
2023-06-10T21:39:44.727Z,9.98
2023-06-10T21:42:11.768Z,10.32
2023-06-10T21:44:38.249Z,10.38
2023-06-10T21:47:04.939Z,10.13
2023-06-10T21:49:31.406Z,10.82
2023-06-10T21:51:57.942Z,9.32
2023-06-10T21:54:24.438Z,10.00
2023-06-10T21:56:51.040Z,10.85
2023-06-10T21:59:19.099Z,13.38
2023-06-10T22:01:45.689Z,11.48
2023-06-10T22:04:12.242Z,11.68
2023-06-10T22:06:38.822Z,10.75
2023-06-10T22:09:05.732Z,10.70
2023-06-10T22:11:32.232Z,11.00
2023-06-10T22:13:58.699Z,11.35
2023-06-10T22:16:25.295Z,17.33
2023-06-10T22:18:51.765Z,10.43
2023-06-10T22:21:18.216Z,11.63
2023-06-10T22:23:44.654Z,11.10
2023-06-10T22:26:11.130Z,10.90
2023-06-10T22:28:37.696Z,11.23
2023-06-10T22:31:04.153Z,10.90
2023-06-10T22:33:30.672Z,10.23
2023-06-10T22:35:57.131Z,12.85
2023-06-10T22:38:23.616Z,15.50
2023-06-10T22:40:50.054Z,11.50
2023-06-10T22:43:16.491Z,11.63
2023-06-10T22:45:42.939Z,11.63
2023-06-10T22:48:09.484Z,14.32
2023-06-10T22:50:36.212Z,11.13
2023-06-10T22:53:02.657Z,15.80
2023-06-10T22:55:29.146Z,12.10
2023-06-10T22:57:55.652Z,11.10
2023-06-10T23:00:22.226Z,11.50
2023-06-10T23:02:48.754Z,11.77
2023-06-10T23:05:15.418Z,11.20
2023-06-10T23:07:41.981Z,11.77
2023-06-10T23:10:08.943Z,12.02
2023-06-10T23:12:36.102Z,12.18
2023-06-10T23:15:03.666Z,11.80
2023-06-10T23:17:30.704Z,11.95
2023-06-10T23:19:59.517Z,11.52
2023-06-10T23:22:26.757Z,11.18
2023-06-10T23:24:57.252Z,14.70
2023-06-10T23:27:23.793Z,12.90
2023-06-10T23:32:20.791Z,11.60
2023-06-10T23:34:47.385Z,12.65
2023-06-10T23:37:14.283Z,10.30
2023-06-10T23:39:45.420Z,10.35
2023-06-10T23:42:12.035Z,11.63
2023-06-10T23:44:38.522Z,11.88
2023-06-10T23:47:05.253Z,13.85
2023-06-10T23:49:31.697Z,12.23
2023-06-10T23:51:58.126Z,14.10
2023-06-10T23:54:24.609Z,12.57
2023-06-10T23:56:51.070Z,12.00
2023-06-10T23:59:17.567Z,11.85
